createdAt,value
2023-05-15T00:00:12.426Z,17.91
2023-05-15T00:03:01.326Z,17.90
2023-05-15T00:05:30.529Z,17.88
2023-05-15T00:08:00.051Z,17.86
2023-05-15T00:10:30.502Z,17.86
2023-05-15T00:12:59.279Z,17.86
2023-05-15T00:15:28.287Z,17.83
2023-05-15T00:17:57.051Z,17.81
2023-05-15T00:20:26.160Z,17.81
2023-05-15T00:22:55.029Z,17.81
2023-05-15T00:25:24.120Z,17.77
2023-05-15T00:27:54.229Z,17.80
2023-05-15T00:30:23.297Z,17.73
2023-05-15T00:32:52.241Z,17.71
2023-05-15T00:35:21.263Z,17.68
2023-05-15T00:37:49.969Z,17.69
2023-05-15T00:40:23.220Z,17.68
2023-05-15T00:42:54.611Z,17.64
2023-05-15T00:45:27.722Z,17.60
2023-05-15T00:47:58.815Z,17.62
2023-05-15T00:50:28.390Z,17.55
2023-05-15T00:52:57.375Z,17.60
2023-05-15T00:55:29.679Z,17.57
2023-05-15T00:58:03.443Z,17.52
2023-05-15T01:00:35.353Z,17.50
2023-05-15T01:03:07.179Z,17.49
2023-05-15T01:05:37.096Z,17.45
2023-05-15T01:08:17.853Z,17.47
2023-05-15T01:10:49.644Z,17.45
2023-05-15T01:13:22.918Z,17.43
2023-05-15T01:15:52.143Z,17.44
2023-05-15T01:18:22.165Z,17.42
2023-05-15T01:21:28.558Z,17.43
2023-05-15T01:24:21.899Z,17.36
2023-05-15T01:27:20.185Z,17.36
2023-05-15T01:30:01.295Z,17.33
2023-05-15T01:32:42.949Z,17.31
2023-05-15T01:35:21.151Z,17.23
2023-05-15T01:37:59.958Z,17.19
2023-05-15T01:40:31.015Z,17.19
2023-05-15T01:43:10.232Z,17.15
2023-05-15T01:45:42.228Z,17.12
2023-05-15T01:48:15.094Z,17.12
2023-05-15T01:50:46.896Z,17.10
2023-05-15T01:53:19.081Z,17.10
2023-05-15T01:55:50.664Z,17.08
2023-05-15T01:58:22.222Z,17.06
2023-05-15T02:00:52.251Z,17.09
2023-05-15T02:03:21.793Z,17.07
2023-05-15T02:05:53.317Z,17.09
2023-05-15T02:08:25.774Z,17.06
2023-05-15T02:10:55.866Z,17.06
2023-05-15T02:13:27.959Z,17.05
2023-05-15T02:15:56.675Z,17.05
2023-05-15T02:18:26.109Z,17.01
2023-05-15T02:20:55.009Z,17.02
2023-05-15T02:23:23.924Z,17.03
2023-05-15T02:26:27.519Z,17.06
2023-05-15T02:29:14.786Z,17.06
2023-05-15T02:31:57.121Z,17.04
2023-05-15T02:34:39.009Z,17.04
2023-05-15T02:37:15.857Z,17.04
2023-05-15T02:39:47.450Z,17.00
2023-05-15T02:42:16.978Z,16.97
2023-05-15T02:44:50.083Z,16.98
2023-05-15T02:47:20.587Z,16.99
2023-05-15T02:49:50.282Z,16.99
2023-05-15T02:52:19.437Z,16.95
2023-05-15T02:54:48.622Z,16.94
2023-05-15T02:57:17.345Z,16.91
2023-05-15T02:59:47.912Z,16.87
2023-05-15T03:02:16.563Z,16.88
2023-05-15T03:04:47.066Z,16.88
2023-05-15T03:07:16.831Z,16.88
2023-05-15T03:09:45.805Z,16.89
2023-05-15T03:12:14.546Z,16.89
2023-05-15T03:14:43.523Z,16.87
2023-05-15T03:17:13.573Z,16.88
2023-05-15T03:19:42.657Z,16.91
2023-05-15T03:22:11.415Z,16.91
2023-05-15T03:24:40.385Z,16.93
2023-05-15T03:27:09.029Z,16.97
2023-05-15T03:29:38.216Z,16.95
2023-05-15T03:32:07.218Z,16.98
2023-05-15T03:34:39.141Z,17.00
2023-05-15T03:37:09.578Z,17.00
2023-05-15T03:39:38.538Z,17.00
2023-05-15T03:42:08.211Z,17.00
2023-05-15T03:44:37.228Z,17.00
2023-05-15T03:47:06.392Z,17.09
2023-05-15T03:49:35.316Z,17.05
2023-05-15T03:52:08.222Z,17.05
2023-05-15T03:54:37.509Z,17.06
2023-05-15T03:57:06.844Z,17.05
2023-05-15T03:59:35.834Z,17.02
2023-05-15T04:02:05.690Z,16.97
2023-05-15T04:04:35.457Z,16.98
2023-05-15T04:07:04.288Z,16.97
2023-05-15T04:09:34.578Z,16.99
2023-05-15T04:12:03.262Z,16.98
2023-05-15T04:14:32.222Z,16.98
2023-05-15T04:17:00.998Z,16.97
2023-05-15T04:19:29.997Z,16.96
2023-05-15T04:21:58.602Z,16.97
2023-05-15T04:24:27.522Z,16.97
2023-05-15T04:26:57.650Z,16.95
2023-05-15T04:29:26.739Z,16.90
2023-05-15T04:31:55.635Z,16.88
2023-05-15T04:34:24.827Z,16.91
2023-05-15T04:36:53.527Z,16.87
2023-05-15T04:39:22.525Z,16.86
2023-05-15T04:41:51.272Z,16.88
2023-05-15T04:44:21.589Z,16.93
2023-05-15T04:46:50.308Z,16.94
2023-05-15T04:49:19.177Z,16.89
2023-05-15T04:51:47.886Z,16.91
2023-05-15T04:54:16.864Z,16.91
2023-05-15T04:56:47.187Z,16.90
2023-05-15T04:59:16.635Z,16.88
2023-05-15T05:01:46.793Z,16.87
2023-05-15T05:04:19.412Z,16.87
2023-05-15T05:06:48.554Z,16.89
2023-05-15T05:09:19.295Z,16.89
2023-05-15T05:11:48.965Z,16.83
2023-05-15T05:14:18.087Z,16.85
2023-05-15T05:16:48.123Z,16.83
2023-05-15T05:19:17.131Z,16.85
2023-05-15T05:21:45.793Z,16.82
2023-05-15T05:24:14.792Z,16.80
2023-05-15T05:26:45.728Z,16.81
2023-05-15T05:29:14.678Z,16.81
2023-05-15T05:31:43.597Z,16.79
2023-05-15T05:34:13.943Z,16.75
2023-05-15T05:36:42.692Z,16.79
2023-05-15T05:39:11.626Z,16.82
2023-05-15T05:41:40.358Z,16.82
2023-05-15T05:44:09.792Z,16.74
2023-05-15T05:46:38.583Z,16.68
2023-05-15T05:49:07.629Z,16.66
2023-05-15T05:51:38.247Z,16.64
2023-05-15T05:54:07.366Z,16.64
2023-05-15T05:56:36.073Z,16.67
2023-05-15T05:59:06.526Z,16.73
2023-05-15T06:01:35.320Z,16.75
2023-05-15T06:04:04.479Z,16.63
2023-05-15T06:06:33.757Z,16.64
2023-05-15T06:09:05.662Z,16.58
2023-05-15T06:11:34.661Z,16.51
2023-05-15T06:14:03.663Z,16.39
2023-05-15T06:16:32.321Z,16.29
2023-05-15T06:19:01.321Z,16.20
2023-05-15T06:21:29.991Z,16.08
2023-05-15T06:23:59.296Z,16.01
2023-05-15T06:26:29.409Z,15.81
2023-05-15T06:28:58.318Z,15.68
2023-05-15T06:31:27.319Z,15.54
2023-05-15T06:33:56.290Z,15.39
2023-05-15T06:36:24.906Z,15.29
2023-05-15T06:38:53.880Z,15.10
2023-05-15T06:41:22.706Z,14.91
2023-05-15T06:43:53.465Z,14.78
2023-05-15T06:46:22.512Z,14.63
2023-05-15T06:48:51.573Z,14.48
2023-05-15T06:51:20.358Z,14.38
2023-05-15T06:53:49.366Z,14.25
2023-05-15T06:56:18.070Z,14.12
2023-05-15T06:58:47.177Z,14.05
2023-05-15T07:01:17.234Z,13.96
2023-05-15T07:03:46.209Z,13.93
2023-05-15T07:06:14.879Z,13.87
2023-05-15T07:08:43.904Z,13.88
2023-05-15T07:11:12.688Z,13.83
2023-05-15T07:13:41.648Z,13.75
2023-05-15T07:16:11.322Z,13.71
2023-05-15T07:18:41.725Z,13.71
2023-05-15T07:21:10.568Z,13.70
2023-05-15T07:23:39.564Z,13.62
2023-05-15T07:26:13.983Z,13.59
2023-05-15T07:28:45.710Z,13.57
2023-05-15T07:31:14.422Z,13.57
2023-05-15T07:33:44.738Z,13.52
2023-05-15T07:36:13.411Z,13.49
2023-05-15T07:38:42.328Z,13.47
2023-05-15T07:41:11.070Z,13.46
2023-05-15T07:43:40.101Z,13.49
2023-05-15T07:46:08.880Z,13.50
2023-05-15T07:48:37.912Z,13.50
2023-05-15T07:51:08.111Z,13.56
2023-05-15T07:53:37.104Z,13.50
2023-05-15T07:56:06.486Z,13.57
2023-05-15T07:58:38.393Z,13.67
2023-05-15T08:01:07.609Z,13.70
2023-05-15T08:03:37.301Z,13.72
2023-05-15T08:06:08.492Z,13.70
2023-05-15T08:08:37.620Z,13.69
2023-05-15T08:11:06.471Z,13.73
2023-05-15T08:13:35.551Z,13.76
2023-05-15T08:16:04.989Z,13.80
2023-05-15T08:18:34.405Z,13.93
2023-05-15T08:21:04.738Z,13.97
2023-05-15T08:23:35.416Z,14.01
2023-05-15T08:26:04.176Z,14.07
2023-05-15T08:28:33.675Z,14.16
2023-05-15T08:31:02.481Z,14.24
2023-05-15T08:33:31.598Z,14.30
2023-05-15T08:36:00.372Z,14.35
2023-05-15T08:38:29.381Z,14.39
2023-05-15T08:41:07.437Z,14.46
2023-05-15T08:43:39.278Z,14.40
2023-05-15T08:46:08.575Z,14.35
2023-05-15T08:48:43.160Z,14.30
2023-05-15T08:51:12.948Z,14.25
2023-05-15T08:53:42.223Z,14.16
2023-05-15T08:56:12.758Z,14.12
2023-05-15T08:58:41.947Z,14.12
2023-05-15T09:01:13.333Z,14.08
2023-05-15T09:03:42.872Z,13.98
2023-05-15T09:06:12.168Z,13.92
2023-05-15T09:08:44.067Z,13.91
2023-05-15T09:11:16.454Z,13.93
2023-05-15T09:13:45.587Z,13.93
2023-05-15T09:16:14.332Z,14.01
2023-05-15T09:18:45.024Z,14.07
2023-05-15T09:21:32.445Z,14.08
2023-05-15T09:24:21.745Z,14.08
2023-05-15T09:27:04.101Z,14.22
2023-05-15T09:29:35.417Z,14.16
2023-05-15T09:32:05.576Z,14.14
2023-05-15T09:34:37.448Z,14.02
2023-05-15T09:37:08.549Z,14.05
2023-05-15T09:39:43.586Z,14.08
2023-05-15T09:42:16.131Z,14.07
2023-05-15T09:44:47.160Z,14.02
2023-05-15T09:47:17.634Z,14.00
2023-05-15T09:49:47.624Z,13.94
2023-05-15T09:52:17.543Z,13.94
2023-05-15T09:54:50.214Z,13.99
2023-05-15T09:57:24.345Z,14.02
2023-05-15T09:59:53.381Z,14.07
2023-05-15T10:02:28.073Z,14.05
2023-05-15T10:04:58.162Z,14.05
2023-05-15T10:07:30.819Z,14.08
2023-05-15T10:10:00.241Z,13.97
2023-05-15T10:12:32.486Z,14.00
2023-05-15T10:15:05.740Z,13.95
2023-05-15T10:17:37.005Z,13.93
2023-05-15T10:20:09.437Z,13.86
2023-05-15T10:22:42.411Z,13.84
2023-05-15T10:25:35.178Z,13.87
2023-05-15T10:28:09.706Z,13.91
2023-05-15T10:30:39.778Z,13.87
2023-05-15T10:33:09.934Z,13.82
2023-05-15T10:35:41.130Z,13.75
2023-05-15T10:38:12.521Z,13.77
2023-05-15T10:40:43.313Z,13.65
2023-05-15T10:43:15.970Z,13.66
2023-05-15T10:45:45.789Z,13.65
2023-05-15T10:48:16.976Z,13.73
2023-05-15T10:50:46.182Z,13.75
2023-05-15T10:53:16.192Z,13.75
2023-05-15T10:55:46.257Z,13.70
2023-05-15T10:58:16.341Z,13.68
2023-05-15T11:00:46.699Z,13.70
2023-05-15T11:03:16.566Z,13.72
2023-05-15T11:06:11.560Z,13.68
2023-05-15T11:08:41.677Z,13.57
2023-05-15T11:11:10.751Z,13.56
2023-05-15T11:14:15.385Z,13.50
2023-05-15T11:17:05.897Z,13.57
2023-05-15T11:19:55.952Z,13.56
2023-05-15T11:22:31.098Z,13.57
2023-05-15T11:25:02.548Z,13.54
2023-05-15T11:27:34.522Z,13.61
2023-05-15T11:30:14.346Z,13.57
2023-05-15T11:33:03.784Z,13.61
2023-05-15T11:35:35.664Z,13.59
2023-05-15T11:38:12.269Z,13.57
2023-05-15T11:40:49.280Z,13.64
2023-05-15T11:43:24.825Z,13.62
2023-05-15T11:45:57.854Z,13.64
2023-05-15T11:48:33.317Z,13.59
2023-05-15T11:51:04.277Z,13.51
2023-05-15T11:53:34.744Z,13.51
2023-05-15T11:56:03.570Z,13.52
2023-05-15T11:58:32.751Z,13.45
2023-05-15T12:01:02.941Z,13.53
2023-05-15T12:03:36.282Z,13.40
2023-05-15T12:06:06.376Z,13.52
2023-05-15T12:08:37.720Z,13.53
2023-05-15T12:11:07.156Z,13.57
2023-05-15T12:13:36.802Z,13.60
2023-05-15T12:16:07.698Z,13.52
2023-05-15T12:18:36.766Z,13.51
2023-05-15T12:21:06.293Z,13.57
2023-05-15T12:23:35.337Z,13.63
2023-05-15T12:26:05.135Z,13.61
2023-05-15T12:28:36.704Z,13.60
2023-05-15T12:31:07.132Z,13.60
2023-05-15T12:33:36.265Z,13.61
2023-05-15T12:36:05.447Z,13.68
2023-05-15T12:38:35.069Z,13.66
2023-05-15T12:41:04.141Z,13.64
2023-05-15T12:43:34.023Z,13.69
2023-05-15T12:46:03.125Z,13.77
2023-05-15T12:48:33.932Z,13.79
2023-05-15T12:51:08.104Z,13.81
2023-05-15T12:53:39.818Z,13.84
2023-05-15T12:56:10.334Z,13.80
2023-05-15T12:58:40.253Z,13.82
2023-05-15T13:01:09.431Z,13.86
2023-05-15T13:03:40.300Z,13.97
2023-05-15T13:06:11.879Z,13.96
2023-05-15T13:08:42.623Z,14.06
2023-05-15T13:11:15.004Z,14.11
2023-05-15T13:13:46.513Z,14.10
2023-05-15T13:16:23.173Z,14.02
2023-05-15T13:18:53.895Z,14.00
2023-05-15T13:21:22.669Z,14.08
2023-05-15T13:23:52.754Z,14.10
2023-05-15T13:26:21.834Z,14.11
2023-05-15T13:28:50.790Z,14.17
2023-05-15T13:31:19.712Z,14.19
2023-05-15T13:33:49.094Z,14.18
2023-05-15T13:36:19.198Z,14.29
2023-05-15T13:38:48.177Z,14.25
2023-05-15T13:41:17.026Z,14.21
2023-05-15T13:43:47.935Z,14.11
2023-05-15T13:46:16.825Z,14.21
2023-05-15T13:48:45.812Z,14.40
2023-05-15T13:51:14.556Z,14.36
2023-05-15T13:53:44.968Z,14.45
2023-05-15T13:56:14.022Z,14.44
2023-05-15T13:58:43.040Z,14.54
2023-05-15T14:01:12.170Z,14.61
2023-05-15T14:03:41.203Z,14.75
2023-05-15T14:06:10.339Z,14.84
2023-05-15T14:08:39.300Z,14.83
2023-05-15T14:11:09.425Z,14.97
2023-05-15T14:13:38.494Z,15.09
2023-05-15T14:16:08.297Z,15.11
2023-05-15T14:18:37.400Z,15.11
2023-05-15T14:21:06.149Z,15.09
2023-05-15T14:23:35.197Z,15.04
2023-05-15T14:26:04.337Z,15.11
2023-05-15T14:28:34.871Z,15.05
2023-05-15T14:31:03.587Z,15.08
2023-05-15T14:33:32.508Z,15.10
2023-05-15T14:36:01.624Z,15.20
2023-05-15T14:38:31.034Z,15.15
2023-05-15T14:40:59.812Z,15.13
2023-05-15T14:43:29.459Z,15.17
2023-05-15T14:45:59.535Z,15.24
2023-05-15T14:48:29.996Z,15.27
2023-05-15T14:50:59.563Z,15.34
2023-05-15T14:53:28.745Z,15.41
2023-05-15T14:55:58.600Z,15.47
2023-05-15T14:58:27.977Z,15.50
2023-05-15T15:00:56.808Z,15.48
2023-05-15T15:03:28.714Z,15.48
2023-05-15T15:05:58.920Z,15.61
2023-05-15T15:08:27.929Z,15.67
2023-05-15T15:10:56.591Z,15.65
2023-05-15T15:13:26.587Z,15.61
2023-05-15T15:15:55.685Z,15.68
2023-05-15T15:18:26.380Z,15.80
2023-05-15T15:20:55.060Z,15.85
2023-05-15T15:23:24.252Z,15.96
2023-05-15T15:25:52.907Z,15.93
2023-05-15T15:28:21.883Z,16.04
2023-05-15T15:30:50.651Z,16.20
2023-05-15T15:33:19.703Z,16.26
2023-05-15T15:35:49.734Z,16.25
2023-05-15T15:38:18.684Z,16.37
2023-05-15T15:40:47.391Z,16.41
2023-05-15T15:43:17.030Z,16.49
2023-05-15T15:45:46.186Z,16.45
2023-05-15T15:48:15.210Z,16.45
2023-05-15T15:50:43.852Z,16.42
2023-05-15T15:53:14.191Z,16.40
2023-05-15T15:55:44.144Z,16.40
2023-05-15T15:58:14.626Z,16.37
2023-05-15T16:00:43.373Z,16.26
2023-05-15T16:03:12.430Z,16.18
2023-05-15T16:05:41.165Z,16.22
2023-05-15T16:08:10.174Z,16.23
2023-05-15T16:10:40.852Z,16.16
2023-05-15T16:13:11.014Z,16.08
2023-05-15T16:15:39.768Z,16.14
2023-05-15T16:18:08.831Z,16.15
2023-05-15T16:20:37.463Z,16.24
2023-05-15T16:23:09.312Z,16.36
2023-05-15T16:25:39.610Z,16.34
2023-05-15T16:28:10.021Z,16.42
2023-05-15T16:30:47.980Z,16.34
2023-05-15T16:33:18.682Z,16.34
2023-05-15T16:35:48.407Z,16.17
2023-05-15T16:38:18.145Z,16.20
2023-05-15T16:40:48.262Z,16.16
2023-05-15T16:43:17.706Z,16.28
2023-05-15T16:45:46.376Z,16.22
2023-05-15T16:48:15.439Z,16.23
2023-05-15T16:50:44.330Z,16.21
2023-05-15T16:53:14.991Z,16.27
2023-05-15T16:55:43.962Z,16.16
2023-05-15T16:58:14.682Z,16.24
2023-05-15T17:00:43.893Z,16.23
2023-05-15T17:03:13.178Z,16.30
2023-05-15T17:05:41.958Z,16.26
2023-05-15T17:08:11.505Z,16.31
2023-05-15T17:10:40.602Z,16.20
2023-05-15T17:13:09.702Z,16.22
2023-05-15T17:15:39.885Z,16.21
2023-05-15T17:18:09.010Z,16.12
2023-05-15T17:20:37.792Z,16.09
2023-05-15T17:23:06.800Z,16.09
2023-05-15T17:25:35.484Z,16.10
2023-05-15T17:28:04.414Z,16.02
2023-05-15T17:30:33.233Z,16.00
2023-05-15T17:33:03.598Z,16.05
2023-05-15T17:35:33.338Z,16.07
2023-05-15T17:38:02.596Z,15.96
2023-05-15T17:40:31.234Z,16.00
2023-05-15T17:43:00.234Z,15.93
2023-05-15T17:45:28.898Z,15.95
2023-05-15T17:48:03.642Z,15.93
2023-05-15T17:50:37.914Z,15.96
2023-05-15T17:53:07.337Z,15.94
2023-05-15T17:55:36.394Z,15.95
2023-05-15T18:11:55.807Z,15.95
2023-05-15T18:14:24.861Z,15.84
2023-05-15T18:16:53.737Z,15.80
2023-05-15T18:19:22.891Z,15.71
2023-05-15T18:21:52.733Z,15.50
2023-05-15T18:24:21.815Z,15.38
2023-05-15T18:26:50.609Z,15.26
2023-05-15T18:29:20.917Z,15.22
2023-05-15T18:31:49.738Z,15.19
2023-05-15T18:34:18.792Z,15.06
2023-05-15T18:36:48.863Z,14.95
2023-05-15T18:39:17.802Z,14.50
2023-05-15T18:41:46.609Z,14.44
2023-05-15T18:44:15.723Z,14.16
2023-05-15T18:46:45.810Z,14.21
2023-05-15T18:49:17.326Z,14.15
2023-05-15T18:51:46.226Z,14.15
2023-05-15T18:54:15.270Z,14.12
2023-05-15T18:56:43.994Z,14.01
2023-05-15T18:59:13.066Z,13.98
2023-05-15T19:01:41.829Z,13.96
2023-05-15T19:04:12.204Z,13.79
2023-05-15T19:06:42.827Z,13.74
2023-05-15T19:09:11.909Z,13.62
2023-05-15T19:11:40.643Z,13.40
2023-05-15T19:14:10.825Z,13.39
2023-05-15T19:16:39.580Z,13.32
2023-05-15T19:19:08.755Z,13.21
2023-05-15T19:21:39.586Z,13.29
2023-05-15T19:24:09.300Z,13.25
2023-05-15T19:26:37.966Z,13.20
2023-05-15T19:29:06.954Z,13.24
2023-05-15T19:31:36.608Z,13.22
2023-05-15T19:34:06.181Z,13.21
2023-05-15T19:36:34.981Z,13.26
2023-05-15T19:39:05.575Z,13.31
2023-05-15T19:41:34.497Z,13.33
2023-05-15T19:44:03.493Z,13.36
2023-05-15T19:46:32.233Z,13.37
2023-05-15T19:49:01.367Z,13.39
2023-05-15T19:51:30.229Z,13.41
2023-05-15T19:54:01.872Z,13.38
2023-05-15T19:56:31.952Z,13.38
2023-05-15T19:59:01.440Z,13.36
2023-05-15T20:01:30.205Z,13.32
2023-05-15T20:03:59.337Z,13.40
2023-05-15T20:06:28.361Z,13.42
2023-05-15T20:08:57.325Z,13.43
2023-05-15T20:11:26.127Z,13.42
2023-05-15T20:13:56.539Z,13.47
2023-05-15T20:16:25.360Z,13.47
2023-05-15T20:18:55.324Z,13.48
2023-05-15T20:21:24.214Z,13.52
2023-05-15T20:23:53.187Z,13.46
2023-05-15T20:26:22.428Z,13.47
2023-05-15T20:28:51.438Z,13.51
2023-05-15T20:31:21.604Z,13.49
2023-05-15T20:33:50.879Z,13.57
2023-05-15T20:36:20.233Z,13.55
2023-05-15T20:38:51.846Z,13.60
2023-05-15T20:41:22.942Z,13.62
2023-05-15T20:43:52.297Z,13.51
2023-05-15T20:46:22.566Z,13.58
2023-05-15T20:48:51.647Z,13.60
2023-05-15T20:51:21.831Z,13.60
2023-05-15T20:53:50.836Z,13.51
2023-05-15T20:56:19.749Z,13.64
2023-05-15T20:58:48.797Z,13.72
2023-05-15T21:01:17.483Z,13.69
2023-05-15T21:03:48.104Z,13.65
2023-05-15T21:06:16.874Z,13.71
2023-05-15T21:08:45.899Z,13.65
2023-05-15T21:11:15.075Z,13.63
2023-05-15T21:13:44.176Z,13.58
2023-05-15T21:16:12.881Z,13.65
2023-05-15T21:18:41.965Z,13.64
2023-05-15T21:21:12.260Z,13.66
2023-05-15T21:23:41.254Z,13.63
2023-05-15T21:26:09.986Z,13.64
2023-05-15T21:28:39.126Z,13.72
2023-05-15T21:31:08.450Z,13.65
2023-05-15T21:33:37.985Z,13.70
2023-05-15T21:36:07.329Z,13.80
2023-05-15T21:38:37.836Z,13.79
2023-05-15T21:41:06.782Z,13.77
2023-05-15T21:43:35.986Z,13.75
2023-05-15T21:46:05.089Z,13.73
2023-05-15T21:48:34.114Z,13.74
2023-05-15T21:51:02.848Z,13.58
2023-05-15T21:53:31.825Z,13.61
2023-05-15T21:56:02.966Z,13.57
2023-05-15T21:58:32.339Z,13.60
2023-05-15T22:01:01.080Z,13.50
2023-05-15T22:03:30.164Z,13.48
2023-05-15T22:05:59.016Z,13.44
2023-05-15T22:08:28.122Z,13.40
2023-05-15T22:10:56.860Z,13.50
2023-05-15T22:13:27.401Z,13.45
2023-05-15T22:15:56.190Z,13.39
2023-05-15T22:18:26.205Z,13.40
2023-05-15T22:20:55.308Z,13.39
2023-05-15T22:23:24.663Z,13.45
2023-05-15T22:25:53.303Z,13.51
2023-05-15T22:28:22.312Z,13.49
2023-05-15T22:30:52.427Z,13.47
2023-05-15T22:33:24.128Z,13.43
2023-05-15T22:35:53.288Z,13.44
2023-05-15T22:38:22.556Z,13.44
2023-05-15T22:40:52.718Z,13.46
2023-05-15T22:43:22.507Z,13.45
2023-05-15T22:45:52.774Z,13.40
2023-05-15T22:48:23.106Z,13.37
2023-05-15T22:50:52.558Z,13.36
2023-05-15T22:53:21.521Z,13.28
2023-05-15T22:55:50.579Z,13.31
2023-05-15T22:58:19.512Z,13.27
2023-05-15T23:00:48.223Z,13.19
2023-05-15T23:03:18.610Z,13.10
2023-05-15T23:05:47.444Z,13.13
2023-05-15T23:08:16.452Z,13.04
2023-05-15T23:10:45.083Z,13.08
2023-05-15T23:13:14.087Z,13.12
2023-05-15T23:15:44.201Z,13.07
2023-05-15T23:18:13.322Z,13.06
2023-05-15T23:20:43.404Z,13.05
2023-05-15T23:23:12.556Z,13.05
2023-05-15T23:25:41.173Z,13.05
2023-05-15T23:28:10.151Z,13.03
2023-05-15T23:30:38.828Z,12.91
2023-05-15T23:33:07.875Z,12.90
2023-05-15T23:35:36.591Z,12.86
2023-05-15T23:38:07.033Z,12.93
2023-05-15T23:40:35.857Z,12.93
2023-05-15T23:43:04.815Z,12.93
2023-05-15T23:45:33.657Z,12.88
2023-05-15T23:48:02.630Z,12.94
2023-05-15T23:50:31.506Z,12.98
2023-05-15T23:53:00.593Z,12.92
2023-05-15T23:55:30.877Z,12.96
2023-05-15T23:58:00.000Z,13.00
